sensor_id;sensor_type;location;lat;lon;timestamp;pressure;altitude;pressure_sealevel;temperature;humidity
55187;BME280;55457;52.002;5.464;2023-01-08T00:00:22;100071.91;;;22.50;45.10
55187;BME280;55457;52.002;5.464;2023-01-08T00:02:48;100063.19;;;22.48;44.96
55187;BME280;55457;52.002;5.464;2023-01-08T00:05:14;100063.19;;;22.48;45.24
55187;BME280;55457;52.002;5.464;2023-01-08T00:07:39;100065.09;;;22.48;44.73
55187;BME280;55457;52.002;5.464;2023-01-08T00:10:05;100045.28;;;22.47;45.13
55187;BME280;55457;52.002;5.464;2023-01-08T00:12:30;100052.63;;;22.47;44.88
55187;BME280;55457;52.002;5.464;2023-01-08T00:14:56;100050.72;;;22.47;44.73
55187;BME280;55457;52.002;5.464;2023-01-08T00:17:21;100046.38;;;22.46;44.74
55187;BME280;55457;52.002;5.464;2023-01-08T00:19:46;100061.59;;;22.47;44.79
55187;BME280;55457;52.002;5.464;2023-01-08T00:22:12;100051.81;;;22.46;45.12
55187;BME280;55457;52.002;5.464;2023-01-08T00:24:37;100042.88;;;22.46;44.86
55187;BME280;55457;52.002;5.464;2023-01-08T00:27:02;100036.63;;;22.45;44.81
55187;BME280;55457;52.002;5.464;2023-01-08T00:29:28;100034.97;;;22.44;44.59
55187;BME280;55457;52.002;5.464;2023-01-08T00:31:53;100031.19;;;22.45;45.10
55187;BME280;55457;52.002;5.464;2023-01-08T00:34:18;100014.34;;;22.43;44.78
55187;BME280;55457;52.002;5.464;2023-01-08T00:36:44;100012.44;;;22.44;45.01
55187;BME280;55457;52.002;5.464;2023-01-08T00:39:09;100011.63;;;22.43;45.11
55187;BME280;55457;52.002;5.464;2023-01-08T00:41:34;100006.19;;;22.43;44.84
55187;BME280;55457;52.002;5.464;2023-01-08T00:43:59;99996.97;;;22.44;44.83
55187;BME280;55457;52.002;5.464;2023-01-08T00:46:25;99998.06;;;22.43;44.63
55187;BME280;55457;52.002;5.464;2023-01-08T00:48:50;99993.44;;;22.44;45.10
55187;BME280;55457;52.002;5.464;2023-01-08T00:51:15;100000.78;;;22.43;45.00
55187;BME280;55457;52.002;5.464;2023-01-08T00:53:41;100003.50;;;22.43;44.81
55187;BME280;55457;52.002;5.464;2023-01-08T00:56:08;100006.19;;;22.43;45.16
55187;BME280;55457;52.002;5.464;2023-01-08T00:58:34;99995.34;;;22.43;44.64
55187;BME280;55457;52.002;5.464;2023-01-08T01:01:00;99992.09;;;22.41;45.00
55187;BME280;55457;52.002;5.464;2023-01-08T01:03:25;99994.53;;;22.43;44.60
55187;BME280;55457;52.002;5.464;2023-01-08T01:06:01;99992.09;;;22.41;44.90
55187;BME280;55457;52.002;5.464;2023-01-08T01:08:28;99992.09;;;22.41;44.70
55187;BME280;55457;52.002;5.464;2023-01-08T01:10:53;99990.47;;;22.40;44.65
55187;BME280;55457;52.002;5.464;2023-01-08T01:13:18;99982.34;;;22.40;44.92
55187;BME280;55457;52.002;5.464;2023-01-08T01:15:43;99983.41;;;22.39;44.53
55187;BME280;55457;52.002;5.464;2023-01-08T01:18:09;99987.22;;;22.38;44.51
55187;BME280;55457;52.002;5.464;2023-01-08T01:20:35;99981.78;;;22.38;44.67
55187;BME280;55457;52.002;5.464;2023-01-08T01:23:00;99982.59;;;22.38;44.35
55187;BME280;55457;52.002;5.464;2023-01-08T01:25:25;99975.53;;;22.37;44.42
55187;BME280;55457;52.002;5.464;2023-01-08T01:27:51;99984.78;;;22.36;44.61
55187;BME280;55457;52.002;5.464;2023-01-08T01:30:16;99987.22;;;22.38;44.32
55187;BME280;55457;52.002;5.464;2023-01-08T01:32:42;99967.69;;;22.36;44.66
55187;BME280;55457;52.002;5.464;2023-01-08T01:35:07;99977.75;;;22.35;44.45
55187;BME280;55457;52.002;5.464;2023-01-08T01:37:32;99978.56;;;22.36;44.55
55187;BME280;55457;52.002;5.464;2023-01-08T01:39:58;99973.13;;;22.36;44.73
55187;BME280;55457;52.002;5.464;2023-01-08T01:42:23;99992.13;;;22.36;44.66
55187;BME280;55457;52.002;5.464;2023-01-08T01:45:22;99998.66;;;22.35;44.42
55187;BME280;55457;52.002;5.464;2023-01-08T01:47:53;99993.22;;;22.35;44.67
55187;BME280;55457;52.002;5.464;2023-01-08T01:55:31;99988.84;;;22.34;44.60
55187;BME280;55457;52.002;5.464;2023-01-08T01:58:05;99997.00;;;22.34;44.29
55187;BME280;55457;52.002;5.464;2023-01-08T02:00:33;99995.38;;;22.33;44.56
55187;BME280;55457;52.002;5.464;2023-01-08T02:02:59;100001.63;;;22.33;44.24
55187;BME280;55457;52.002;5.464;2023-01-08T02:05:31;99998.91;;;22.33;44.62
55187;BME280;55457;52.002;5.464;2023-01-08T02:08:05;100005.44;;;22.32;44.55
55187;BME280;55457;52.002;5.464;2023-01-08T02:10:52;99993.75;;;22.32;44.54
55187;BME280;55457;52.002;5.464;2023-01-08T02:13:26;99993.75;;;22.32;44.61
55187;BME280;55457;52.002;5.464;2023-01-08T02:18:28;99991.03;;;22.32;44.76
55187;BME280;55457;52.002;5.464;2023-01-08T02:21:01;99982.09;;;22.31;44.77
55187;BME280;55457;52.002;5.464;2023-01-08T02:26:29;99976.66;;;22.31;44.57
55187;BME280;55457;52.002;5.464;2023-01-08T02:29:09;99966.09;;;22.30;44.76
55187;BME280;55457;52.002;5.464;2023-01-08T02:31:37;99957.94;;;22.30;44.55
55187;BME280;55457;52.002;5.464;2023-01-08T02:34:03;99960.66;;;22.30;44.39
55187;BME280;55457;52.002;5.464;2023-01-08T02:36:46;99961.47;;;22.30;44.69
55187;BME280;55457;52.002;5.464;2023-01-08T02:39:36;99963.38;;;22.30;44.75
55187;BME280;55457;52.002;5.464;2023-01-08T02:42:22;99959.56;;;22.31;44.69
55187;BME280;55457;52.002;5.464;2023-01-08T02:44:54;99963.38;;;22.30;44.84
55187;BME280;55457;52.002;5.464;2023-01-08T02:47:23;99959.00;;;22.29;44.55
55187;BME280;55457;52.002;5.464;2023-01-08T02:49:54;99967.16;;;22.29;44.71
55187;BME280;55457;52.002;5.464;2023-01-08T02:52:25;99957.13;;;22.29;44.78
55187;BME280;55457;52.002;5.464;2023-01-08T02:54:53;99960.09;;;22.28;44.63
55187;BME280;55457;52.002;5.464;2023-01-08T02:57:20;99956.28;;;22.29;44.81
55187;BME280;55457;52.002;5.464;2023-01-08T02:59:47;99950.06;;;22.28;45.09
55187;BME280;55457;52.002;5.464;2023-01-08T03:02:13;99956.28;;;22.29;44.68
55187;BME280;55457;52.002;5.464;2023-01-08T03:04:45;99958.19;;;22.28;44.77
55187;BME280;55457;52.002;5.464;2023-01-08T03:07:13;99950.88;;;22.29;44.99
55187;BME280;55457;52.002;5.464;2023-01-08T03:09:38;99949.25;;;22.28;45.01
55187;BME280;55457;52.002;5.464;2023-01-08T03:12:43;99954.69;;;22.28;44.83
55187;BME280;55457;52.002;5.464;2023-01-08T03:15:12;99946.53;;;22.28;44.78
55187;BME280;55457;52.002;5.464;2023-01-08T03:17:46;99938.41;;;22.28;45.04
55187;BME280;55457;52.002;5.464;2023-01-08T03:20:16;99943.00;;;22.27;44.83
55187;BME280;55457;52.002;5.464;2023-01-08T03:22:46;99942.22;;;22.27;44.87
55187;BME280;55457;52.002;5.464;2023-01-08T03:25:14;99953.88;;;22.27;45.28
55187;BME280;55457;52.002;5.464;2023-01-08T03:27:48;99950.88;;;22.29;45.20
55187;BME280;55457;52.002;5.464;2023-01-08T03:30:17;99938.41;;;22.28;45.00
55187;BME280;55457;52.002;5.464;2023-01-08T03:32:44;99950.34;;;22.27;44.88
55187;BME280;55457;52.002;5.464;2023-01-08T03:35:13;99941.09;;;22.28;45.05
55187;BME280;55457;52.002;5.464;2023-01-08T03:37:45;99942.22;;;22.27;45.26
55187;BME280;55457;52.002;5.464;2023-01-08T03:40:19;99935.97;;;22.26;44.85
55187;BME280;55457;52.002;5.464;2023-01-08T03:42:45;99936.78;;;22.27;45.16
55187;BME280;55457;52.002;5.464;2023-01-08T03:45:11;99932.16;;;22.27;45.38
55187;BME280;55457;52.002;5.464;2023-01-08T03:47:37;99918.88;;;22.26;45.27
55187;BME280;55457;52.002;5.464;2023-01-08T03:50:08;99925.09;;;22.26;45.16
55187;BME280;55457;52.002;5.464;2023-01-08T03:52:35;99924.31;;;22.26;45.21
55187;BME280;55457;52.002;5.464;2023-01-08T03:55:00;99932.44;;;22.26;45.26
55187;BME280;55457;52.002;5.464;2023-01-08T03:57:25;99934.34;;;22.25;45.11
55187;BME280;55457;52.002;5.464;2023-01-08T03:59:51;99939.50;;;22.27;45.30
55187;BME280;55457;52.002;5.464;2023-01-08T04:02:16;99940.59;;;22.26;45.06
55187;BME280;55457;52.002;5.464;2023-01-08T04:04:42;99938.16;;;22.24;44.95
55187;BME280;55457;52.002;5.464;2023-01-08T04:07:09;99939.50;;;22.27;44.93
55187;BME280;55457;52.002;5.464;2023-01-08T04:09:35;99937.06;;;22.25;45.32
55187;BME280;55457;52.002;5.464;2023-01-08T04:12:00;99934.34;;;22.25;45.62
55187;BME280;55457;52.002;5.464;2023-01-08T04:14:26;99933.53;;;22.25;45.13
55187;BME280;55457;52.002;5.464;2023-01-08T04:16:51;99917.78;;;22.27;44.96
55187;BME280;55457;52.002;5.464;2023-01-08T04:19:16;99913.44;;;22.26;45.07
55187;BME280;55457;52.002;5.464;2023-01-08T04:21:42;99925.09;;;22.26;45.01
55187;BME280;55457;52.002;5.464;2023-01-08T04:24:07;99931.63;;;22.25;45.13
55187;BME280;55457;52.002;5.464;2023-01-08T04:26:32;99922.69;;;22.25;45.15
55187;BME280;55457;52.002;5.464;2023-01-08T04:29:01;99922.69;;;22.25;45.47
55187;BME280;55457;52.002;5.464;2023-01-08T04:31:27;99922.69;;;22.25;45.26
55187;BME280;55457;52.002;5.464;2023-01-08T04:33:52;99917.81;;;22.22;45.29
55187;BME280;55457;52.002;5.464;2023-01-08T04:36:17;99922.69;;;22.25;45.36
55187;BME280;55457;52.002;5.464;2023-01-08T04:38:43;99925.66;;;22.23;45.47
55187;BME280;55457;52.002;5.464;2023-01-08T04:41:08;99915.59;;;22.24;45.01
55187;BME280;55457;52.002;5.464;2023-01-08T04:43:33;99902.88;;;22.24;45.07
55187;BME280;55457;52.002;5.464;2023-01-08T04:46:00;99895.81;;;22.23;45.54
55187;BME280;55457;52.002;5.464;2023-01-08T04:48:26;99904.75;;;22.24;45.49
55187;BME280;55457;52.002;5.464;2023-01-08T04:50:52;99900.41;;;22.23;45.08
55187;BME280;55457;52.002;5.464;2023-01-08T04:53:18;99901.22;;;22.23;45.16
55187;BME280;55457;52.002;5.464;2023-01-08T04:55:43;99906.13;;;22.21;45.48
55187;BME280;55457;52.002;5.464;2023-01-08T04:58:09;99912.38;;;22.22;45.45
55187;BME280;55457;52.002;5.464;2023-01-08T05:00:34;99911.56;;;22.21;45.59
55187;BME280;55457;52.002;5.464;2023-01-08T05:03:00;99913.19;;;22.22;45.06
55187;BME280;55457;52.002;5.464;2023-01-08T05:05:25;99915.38;;;22.20;45.17
55187;BME280;55457;52.002;5.464;2023-01-08T05:07:51;99905.63;;;22.19;45.10
55187;BME280;55457;52.002;5.464;2023-01-08T05:10:16;99895.81;;;22.18;45.47
55187;BME280;55457;52.002;5.464;2023-01-08T05:12:41;99889.31;;;22.19;45.09
55187;BME280;55457;52.002;5.464;2023-01-08T05:15:07;99895.81;;;22.18;45.25
55187;BME280;55457;52.002;5.464;2023-01-08T05:17:33;99897.47;;;22.19;45.33
55187;BME280;55457;52.002;5.464;2023-01-08T05:19:58;99892.31;;;22.18;45.06
55187;BME280;55457;52.002;5.464;2023-01-08T05:22:23;99886.06;;;22.17;45.54
55187;BME280;55457;52.002;5.464;2023-01-08T05:24:49;99892.31;;;22.18;45.22
55187;BME280;55457;52.002;5.464;2023-01-08T05:27:14;99893.41;;;22.17;45.43
55187;BME280;55457;52.002;5.464;2023-01-08T05:29:39;99898.81;;;22.17;45.24
55187;BME280;55457;52.002;5.464;2023-01-08T05:32:13;99898.00;;;22.16;45.21
55187;BME280;55457;52.002;5.464;2023-01-08T05:34:38;99898.81;;;22.17;45.34
55187;BME280;55457;52.002;5.464;2023-01-08T05:37:04;99902.63;;;22.16;45.03
55187;BME280;55457;52.002;5.464;2023-01-08T05:39:29;99897.19;;;22.16;45.25
55187;BME280;55457;52.002;5.464;2023-01-08T05:41:54;99890.97;;;22.15;45.52
55187;BME280;55457;52.002;5.464;2023-01-08T05:44:20;99884.72;;;22.14;45.48
55187;BME280;55457;52.002;5.464;2023-01-08T05:46:45;99896.69;;;22.13;45.60
55187;BME280;55457;52.002;5.464;2023-01-08T05:49:10;99895.59;;;22.14;45.24
55187;BME280;55457;52.002;5.464;2023-01-08T05:51:35;99896.69;;;22.13;45.19
55187;BME280;55457;52.002;5.464;2023-01-08T05:54:01;99901.00;;;22.14;45.56
55187;BME280;55457;52.002;5.464;2023-01-08T05:56:26;99897.75;;;22.12;45.45
55187;BME280;55457;52.002;5.464;2023-01-08T05:58:54;99895.84;;;22.13;45.18
55187;BME280;55457;52.002;5.464;2023-01-08T06:01:20;99900.47;;;22.12;45.13
55187;BME280;55457;52.002;5.464;2023-01-08T06:03:45;99899.94;;;22.10;44.94
55187;BME280;55457;52.002;5.464;2023-01-08T06:06:11;99901.56;;;22.11;45.68
55187;BME280;55457;52.002;5.464;2023-01-08T06:08:36;99896.94;;;22.12;45.23
55187;BME280;55457;52.002;5.464;2023-01-08T06:11:04;99894.50;;;22.10;45.51
55187;BME280;55457;52.002;5.464;2023-01-08T06:13:31;99885.53;;;22.10;45.71
55187;BME280;55457;52.002;5.464;2023-01-08T06:16:00;99892.84;;;22.09;45.17
55187;BME280;55457;52.002;5.464;2023-01-08T06:18:26;99894.50;;;22.10;45.54
55187;BME280;55457;52.002;5.464;2023-01-08T06:20:52;99892.06;;;22.09;45.17
55187;BME280;55457;52.002;5.464;2023-01-08T06:23:17;99886.63;;;22.09;45.43
55187;BME280;55457;52.002;5.464;2023-01-08T06:25:42;99891.25;;;22.08;45.33
55187;BME280;55457;52.002;5.464;2023-01-08T06:28:08;99896.66;;;22.08;45.59
55187;BME280;55457;52.002;5.464;2023-01-08T06:30:33;99888.78;;;22.07;45.33
55187;BME280;55457;52.002;5.464;2023-01-08T06:32:59;99896.66;;;22.08;45.39
55187;BME280;55457;52.002;5.464;2023-01-08T06:35:25;99895.03;;;22.07;45.71
55187;BME280;55457;52.002;5.464;2023-01-08T06:37:53;99905.88;;;22.07;45.64
55187;BME280;55457;52.002;5.464;2023-01-08T06:40:19;99909.41;;;22.08;45.55
55187;BME280;55457;52.002;5.464;2023-01-08T06:42:44;99902.63;;;22.05;45.46
55187;BME280;55457;52.002;5.464;2023-01-08T06:45:11;99904.25;;;22.06;45.64
55187;BME280;55457;52.002;5.464;2023-01-08T06:47:36;99905.88;;;22.07;45.70
55187;BME280;55457;52.002;5.464;2023-01-08T06:50:02;99905.34;;;22.05;45.20
55187;BME280;55457;52.002;5.464;2023-01-08T06:52:27;99905.88;;;22.07;45.32
55187;BME280;55457;52.002;5.464;2023-01-08T06:54:52;99898.84;;;22.06;45.38
55187;BME280;55457;52.002;5.464;2023-01-08T06:57:18;99904.25;;;22.06;45.52
55187;BME280;55457;52.002;5.464;2023-01-08T06:59:43;99902.63;;;22.05;45.51
55187;BME280;55457;52.002;5.464;2023-01-08T07:02:15;99908.59;;;22.07;45.52
55187;BME280;55457;52.002;5.464;2023-01-08T07:04:41;99903.44;;;22.06;45.57
55187;BME280;55457;52.002;5.464;2023-01-08T07:07:07;99906.69;;;22.08;45.30
55187;BME280;55457;52.002;5.464;2023-01-08T07:09:33;99916.72;;;22.07;45.53
55187;BME280;55457;52.002;5.464;2023-01-08T07:11:59;99918.38;;;22.08;45.46
55187;BME280;55457;52.002;5.464;2023-01-08T07:14:24;99896.66;;;22.08;45.67
55187;BME280;55457;52.002;5.464;2023-01-08T07:16:49;99910.25;;;22.08;45.21
55187;BME280;55457;52.002;5.464;2023-01-08T07:19:15;99912.13;;;22.08;45.35
55187;BME280;55457;52.002;5.464;2023-01-08T07:21:40;99904.53;;;22.10;45.37
55187;BME280;55457;52.002;5.464;2023-01-08T07:24:05;99913.50;;;22.10;45.41
55187;BME280;55457;52.002;5.464;2023-01-08T07:26:31;99909.16;;;22.09;45.50
55187;BME280;55457;52.002;5.464;2023-01-08T07:28:57;99909.16;;;22.09;45.71
55187;BME280;55457;52.002;5.464;2023-01-08T07:31:22;99896.38;;;22.10;45.36
55187;BME280;55457;52.002;5.464;2023-01-08T07:33:48;99896.13;;;22.11;45.27
55187;BME280;55457;52.002;5.464;2023-01-08T07:36:13;99899.41;;;22.13;45.50
55187;BME280;55457;52.002;5.464;2023-01-08T07:38:40;99889.59;;;22.12;45.39
55187;BME280;55457;52.002;5.464;2023-01-08T07:41:05;99887.44;;;22.14;45.42
55187;BME280;55457;52.002;5.464;2023-01-08T07:43:31;99885.81;;;22.13;45.34
55187;BME280;55457;52.002;5.464;2023-01-08T07:45:56;99879.84;;;22.11;45.05
55187;BME280;55457;52.002;5.464;2023-01-08T07:48:22;99884.72;;;22.14;45.05
55187;BME280;55457;52.002;5.464;2023-01-08T07:50:47;99890.16;;;22.14;45.17
55187;BME280;55457;52.002;5.464;2023-01-08T07:53:13;99883.63;;;22.16;44.91
55187;BME280;55457;52.002;5.464;2023-01-08T07:55:41;99887.97;;;22.17;44.93
55187;BME280;55457;52.002;5.464;2023-01-08T07:58:08;99888.78;;;22.17;44.86
55187;BME280;55457;52.002;5.464;2023-01-08T08:00:34;99891.22;;;22.19;44.90
55187;BME280;55457;52.002;5.464;2023-01-08T08:03:04;99892.84;;;22.20;44.84
55187;BME280;55457;52.002;5.464;2023-01-08T08:05:30;99893.66;;;22.20;45.03
55187;BME280;55457;52.002;5.464;2023-01-08T08:07:55;99882.00;;;22.20;44.56
55187;BME280;55457;52.002;5.464;2023-01-08T08:10:21;99885.22;;;22.22;44.65
55187;BME280;55457;52.002;5.464;2023-01-08T08:12:46;99890.66;;;22.22;44.70
55187;BME280;55457;52.002;5.464;2023-01-08T08:15:11;99890.38;;;22.23;44.86
55187;BME280;55457;52.002;5.464;2023-01-08T08:17:37;99890.13;;;22.25;44.66
55187;BME280;55457;52.002;5.464;2023-01-08T08:20:02;99893.91;;;22.24;44.55
55187;BME280;55457;52.002;5.464;2023-01-08T08:22:27;99897.16;;;22.26;44.37
55187;BME280;55457;52.002;5.464;2023-01-08T08:24:53;99898.78;;;22.27;44.46
55187;BME280;55457;52.002;5.464;2023-01-08T08:27:18;99901.50;;;22.27;44.60
55187;BME280;55457;52.002;5.464;2023-01-08T08:29:43;99891.44;;;22.27;44.33
55187;BME280;55457;52.002;5.464;2023-01-08T08:32:09;99892.53;;;22.26;44.52
55187;BME280;55457;52.002;5.464;2023-01-08T08:34:34;99883.59;;;22.26;44.57
55187;BME280;55457;52.002;5.464;2023-01-08T08:36:59;99885.22;;;22.27;44.43
55187;BME280;55457;52.002;5.464;2023-01-08T08:39:25;99881.41;;;22.28;44.53
55187;BME280;55457;52.002;5.464;2023-01-08T08:41:50;99874.34;;;22.27;44.31
55187;BME280;55457;52.002;5.464;2023-01-08T08:44:15;99864.59;;;22.26;44.49
55187;BME280;55457;52.002;5.464;2023-01-08T08:46:41;99866.22;;;22.27;44.23
55187;BME280;55457;52.002;5.464;2023-01-08T08:49:06;99854.53;;;22.26;44.21
55187;BME280;55457;52.002;5.464;2023-01-08T08:51:32;99856.44;;;22.26;44.19
55187;BME280;55457;52.002;5.464;2023-01-08T08:53:57;99848.03;;;22.22;44.83
55187;BME280;55457;52.002;5.464;2023-01-08T08:56:22;99851.84;;;22.21;44.99
55187;BME280;55457;52.002;5.464;2023-01-08T08:58:48;99847.81;;;22.19;44.89
55187;BME280;55457;52.002;5.464;2023-01-08T09:01:14;99841.84;;;22.17;45.04
55187;BME280;55457;52.002;5.464;2023-01-08T09:03:40;99845.66;;;22.16;45.08
55187;BME280;55457;52.002;5.464;2023-01-08T09:06:06;99840.22;;;22.16;45.36
55187;BME280;55457;52.002;5.464;2023-01-08T09:08:31;99837.50;;;22.16;45.01
55187;BME280;55457;52.002;5.464;2023-01-08T09:10:56;99839.13;;;22.17;45.26
55187;BME280;55457;52.002;5.464;2023-01-08T09:13:22;99832.59;;;22.18;45.08
55187;BME280;55457;52.002;5.464;2023-01-08T09:15:47;99838.56;;;22.20;45.08
55187;BME280;55457;52.002;5.464;2023-01-08T09:18:12;99834.75;;;22.21;45.05
55187;BME280;55457;52.002;5.464;2023-01-08T09:20:37;99837.19;;;22.22;45.10
55187;BME280;55457;52.002;5.464;2023-01-08T09:23:03;99843.97;;;22.25;44.99
55187;BME280;55457;52.002;5.464;2023-01-08T09:25:29;99844.50;;;22.27;45.25
55187;BME280;55457;52.002;5.464;2023-01-08T09:28:09;99845.56;;;22.31;44.60
55187;BME280;55457;52.002;5.464;2023-01-08T09:30:36;99843.38;;;22.33;44.76
55187;BME280;55457;52.002;5.464;2023-01-08T09:33:03;99845.25;;;22.37;44.53
55187;BME280;55457;52.002;5.464;2023-01-08T09:35:30;99850.94;;;22.41;44.52
55187;BME280;55457;52.002;5.464;2023-01-08T09:37:55;99837.88;;;22.43;44.57
55187;BME280;55457;52.002;5.464;2023-01-08T09:40:24;99840.03;;;22.46;44.41
55187;BME280;55457;52.002;5.464;2023-01-08T09:42:56;99838.94;;;22.47;44.71
55187;BME280;55457;52.002;5.464;2023-01-08T09:45:34;99843.53;;;22.52;45.02
55187;BME280;55457;52.002;5.464;2023-01-08T09:48:05;99821.53;;;22.53;44.74
55187;BME280;55457;52.002;5.464;2023-01-08T09:50:32;99833.44;;;22.57;44.90
55187;BME280;55457;52.002;5.464;2023-01-08T09:52:59;99832.91;;;22.60;45.04
55187;BME280;55457;52.002;5.464;2023-01-08T09:55:26;99837.75;;;22.63;44.78
55187;BME280;55457;52.002;5.464;2023-01-08T09:57:53;99850.22;;;22.64;44.99
55187;BME280;55457;52.002;5.464;2023-01-08T10:00:23;99836.13;;;22.62;44.65
55187;BME280;55457;52.002;5.464;2023-01-08T10:02:52;99848.06;;;22.66;44.60
55187;BME280;55457;52.002;5.464;2023-01-08T10:05:18;99836.09;;;22.67;44.75
55187;BME280;55457;52.002;5.464;2023-01-08T10:07:44;99843.66;;;22.71;44.75
55187;BME280;55457;52.002;5.464;2023-01-08T10:13:00;99831.72;;;22.72;44.44
55187;BME280;55457;52.002;5.464;2023-01-08T10:15:25;99826.28;;;22.72;44.99
55187;BME280;55457;52.002;5.464;2023-01-08T10:18:05;99829.53;;;22.74;44.79
55187;BME280;55457;52.002;5.464;2023-01-08T10:20:32;99826.81;;;22.74;44.85
55187;BME280;55457;52.002;5.464;2023-01-08T10:23:11;99821.38;;;22.74;44.54
55187;BME280;55457;52.002;5.464;2023-01-08T10:26:09;99810.50;;;22.74;44.57
55187;BME280;55457;52.002;5.464;2023-01-08T10:28:35;99805.88;;;22.74;44.50
55187;BME280;55457;52.002;5.464;2023-01-08T10:31:14;99805.88;;;22.74;44.49
55187;BME280;55457;52.002;5.464;2023-01-08T10:33:45;99796.13;;;22.73;44.74
55187;BME280;55457;52.002;5.464;2023-01-08T10:36:14;99794.22;;;22.74;44.62
55187;BME280;55457;52.002;5.464;2023-01-08T10:38:50;99798.03;;;22.73;44.46
55187;BME280;55457;52.002;5.464;2023-01-08T10:41:17;99791.78;;;22.72;44.66
55187;BME280;55457;52.002;5.464;2023-01-08T10:43:55;99787.69;;;22.75;44.79
55187;BME280;55457;52.002;5.464;2023-01-08T10:46:25;99789.59;;;22.74;44.59
55187;BME280;55457;52.002;5.464;2023-01-08T10:48:55;99788.78;;;22.74;44.60
55187;BME280;55457;52.002;5.464;2023-01-08T10:51:23;99784.97;;;22.75;44.79
55187;BME280;55457;52.002;5.464;2023-01-08T10:53:50;99784.97;;;22.75;44.56
55187;BME280;55457;52.002;5.464;2023-01-08T10:56:20;99781.16;;;22.76;44.45
55187;BME280;55457;52.002;5.464;2023-01-08T10:58:46;99786.59;;;22.76;44.63
55187;BME280;55457;52.002;5.464;2023-01-08T11:04:06;99775.16;;;22.79;44.61
55187;BME280;55457;52.002;5.464;2023-01-08T11:06:33;99770.53;;;22.79;44.66
55187;BME280;55457;52.002;5.464;2023-01-08T11:09:03;99756.66;;;22.81;44.65
55187;BME280;55457;52.002;5.464;2023-01-08T11:11:38;99765.88;;;22.85;44.78
55187;BME280;55457;52.002;5.464;2023-01-08T11:14:21;99765.84;;;22.90;44.61
55187;BME280;55457;52.002;5.464;2023-01-08T11:16:48;99770.72;;;22.93;44.63
55187;BME280;55457;52.002;5.464;2023-01-08T11:19:18;99752.22;;;22.95;44.28
55187;BME280;55457;52.002;5.464;2023-01-08T11:21:58;99755.47;;;22.97;44.44
55187;BME280;55457;52.002;5.464;2023-01-08T11:24:37;99751.38;;;23.00;44.38
55187;BME280;55457;52.002;5.464;2023-01-08T11:29:59;99742.66;;;23.03;44.01
55187;BME280;55457;52.002;5.464;2023-01-08T11:32:50;99739.13;;;23.02;44.40
55187;BME280;55457;52.002;5.464;2023-01-08T11:37:53;99737.44;;;23.06;44.25
55187;BME280;55457;52.002;5.464;2023-01-08T11:56:39;99694.44;;;23.13;43.77
55187;BME280;55457;52.002;5.464;2023-01-08T12:07:46;99669.44;;;23.11;43.99
55187;BME280;55457;52.002;5.464;2023-01-08T12:10:44;99662.38;;;23.10;43.86
55187;BME280;55457;52.002;5.464;2023-01-08T12:19:16;99656.91;;;23.15;44.14
55187;BME280;55457;52.002;5.464;2023-01-08T12:27:03;99666.44;;;23.13;43.77
55187;BME280;55457;52.002;5.464;2023-01-08T12:32:48;99669.44;;;23.11;43.82
55187;BME280;55457;52.002;5.464;2023-01-08T12:35:30;99663.44;;;23.14;44.06
55187;BME280;55457;52.002;5.464;2023-01-08T12:38:07;99659.03;;;23.18;44.19
55187;BME280;55457;52.002;5.464;2023-01-08T12:40:39;99667.06;;;23.29;43.74
55187;BME280;55457;52.002;5.464;2023-01-08T12:43:11;99658.78;;;23.39;43.87
55187;BME280;55457;52.002;5.464;2023-01-08T12:45:42;99655.41;;;23.47;43.49
55187;BME280;55457;52.002;5.464;2023-01-08T12:48:16;99636.72;;;23.59;43.62
55187;BME280;55457;52.002;5.464;2023-01-08T12:50:56;99637.34;;;23.56;43.50
55187;BME280;55457;52.002;5.464;2023-01-08T12:53:39;99634.09;;;23.54;43.37
55187;BME280;55457;52.002;5.464;2023-01-08T13:03:39;99622.59;;;23.81;43.05
55187;BME280;55457;52.002;5.464;2023-01-08T13:06:06;99624.84;;;23.93;42.78
55187;BME280;55457;52.002;5.464;2023-01-08T13:08:35;99623.66;;;23.99;43.03
55187;BME280;55457;52.002;5.464;2023-01-08T13:11:01;99621.34;;;24.06;42.90
55187;BME280;55457;52.002;5.464;2023-01-08T13:13:30;99613.94;;;24.12;42.82
55187;BME280;55457;52.002;5.464;2023-01-08T13:16:17;99619.50;;;24.20;42.88
55187;BME280;55457;52.002;5.464;2023-01-08T13:18:57;99611.75;;;24.28;42.91
55187;BME280;55457;52.002;5.464;2023-01-08T13:21:28;99613.88;;;24.31;42.51
55187;BME280;55457;52.002;5.464;2023-01-08T13:26:35;99606.06;;;24.43;42.37
55187;BME280;55457;52.002;5.464;2023-01-08T13:29:22;99602.97;;;24.50;42.48
55187;BME280;55457;52.002;5.464;2023-01-08T13:31:48;99595.50;;;24.55;42.30
55187;BME280;55457;52.002;5.464;2023-01-08T13:34:32;99582.91;;;24.59;42.11
55187;BME280;55457;52.002;5.464;2023-01-08T13:36:59;99590.13;;;24.64;42.07
55187;BME280;55457;52.002;5.464;2023-01-08T13:39:36;99583.50;;;24.70;42.11
55187;BME280;55457;52.002;5.464;2023-01-08T13:44:46;99582.78;;;24.78;41.92
55187;BME280;55457;52.002;5.464;2023-01-08T13:47:30;99587.31;;;24.83;41.88
55187;BME280;55457;52.002;5.464;2023-01-08T13:49:58;99586.72;;;24.86;41.92
55187;BME280;55457;52.002;5.464;2023-01-08T13:52:42;99575.22;;;24.89;41.94
55187;BME280;55457;52.002;5.464;2023-01-08T13:55:19;99570.88;;;24.88;41.59
55187;BME280;55457;52.002;5.464;2023-01-08T13:57:48;99577.13;;;24.88;41.77
55187;BME280;55457;52.002;5.464;2023-01-08T14:03:00;99569.38;;;24.82;41.57
55187;BME280;55457;52.002;5.464;2023-01-08T14:05:28;99562.50;;;24.70;41.60
55187;BME280;55457;52.002;5.464;2023-01-08T14:07:54;99558.66;;;24.58;41.93
55187;BME280;55457;52.002;5.464;2023-01-08T14:10:21;99559.66;;;24.48;42.05
55187;BME280;55457;52.002;5.464;2023-01-08T14:12:47;99559.47;;;24.44;42.06
55187;BME280;55457;52.002;5.464;2023-01-08T14:15:22;99559.66;;;24.48;42.24
55187;BME280;55457;52.002;5.464;2023-01-08T14:17:48;99564.13;;;24.44;42.31
55187;BME280;55457;52.002;5.464;2023-01-08T14:20:20;99558.66;;;24.44;42.38
55187;BME280;55457;52.002;5.464;2023-01-08T14:22:46;99559.16;;;24.46;42.30